sensor_id;sensor_type;location;lat;lon;timestamp;P1;P2;P0
46381;PMS5003;66809;52.974;-2.514;2023-02-26T00:01:41;11.133333333333333;9.466666666666667;
46381;PMS5003;66809;52.974;-2.514;2023-02-26T00:03:41;11.05;9.4;
46381;PMS5003;66809;52.974;-2.514;2023-02-26T00:05:41;10.9;9.25;
46381;PMS5003;66809;52.974;-2.514;2023-02-26T00:07:41;10.933333333333334;9.2;
46381;PMS5003;66809;52.974;-2.514;2023-02-26T00:09:41;10.833333333333334;9.116666666666667;
46381;PMS5003;66809;52.974;-2.514;2023-02-26T00:11:41;10.816666666666666;9.066666666666666;
46381;PMS5003;66809;52.974;-2.514;2023-02-26T00:13:42;10.8;9.05;
46381;PMS5003;66809;52.974;-2.514;2023-02-26T00:15:41;10.816666666666666;9.066666666666666;
46381;PMS5003;66809;52.974;-2.514;2023-02-26T00:17:41;10.883333333333333;9.083333333333334;
46381;PMS5003;66809;52.974;-2.514;2023-02-26T00:19:41;10.933333333333334;9.1;
46381;PMS5003;66809;52.974;-2.514;2023-02-26T00:21:41;10.983333333333333;9.116666666666667;
46381;PMS5003;66809;52.974;-2.514;2023-02-26T00:23:41;11.016666666666667;9.1;
46381;PMS5003;66809;52.974;-2.514;2023-02-26T00:25:41;10.916666666666666;9.083333333333334;
46381;PMS5003;66809;52.974;-2.514;2023-02-26T00:27:41;10.983333333333333;9.15;
46381;PMS5003;66809;52.974;-2.514;2023-02-26T00:29:41;10.883333333333333;9.066666666666666;
46381;PMS5003;66809;52.974;-2.514;2023-02-26T00:31:41;11.05;9.133333333333333;
46381;PMS5003;66809;52.974;-2.514;2023-02-26T00:33:42;11.133333333333333;9.233333333333333;
46381;PMS5003;66809;52.974;-2.514;2023-02-26T00:35:41;11.116666666666667;9.233333333333333;
46381;PMS5003;66809;52.974;-2.514;2023-02-26T00:37:50;11.116666666666667;9.233333333333333;
46381;PMS5003;66809;52.974;-2.514;2023-02-26T00:39:43;11.033333333333333;9.2;
46381;PMS5003;66809;52.974;-2.514;2023-02-26T00:41:40;11.016666666666667;9.15;
46381;PMS5003;66809;52.974;-2.514;2023-02-26T00:43:41;10.883333333333333;9.1;
46381;PMS5003;66809;52.974;-2.514;2023-02-26T00:45:42;10.8;9.016666666666667;
46381;PMS5003;66809;52.974;-2.514;2023-02-26T00:47:43;10.7;8.916666666666666;
46381;PMS5003;66809;52.974;-2.514;2023-02-26T00:49:45;10.533333333333333;8.733333333333333;
46381;PMS5003;66809;52.974;-2.514;2023-02-26T00:51:43;10.233333333333333;8.566666666666666;
46381;PMS5003;66809;52.974;-2.514;2023-02-26T00:53:42;10.083333333333334;8.466666666666667;
46381;PMS5003;66809;52.974;-2.514;2023-02-26T00:55:41;9.966666666666667;8.283333333333333;
46381;PMS5003;66809;52.974;-2.514;2023-02-26T00:57:41;9.866666666666667;8.2;
46381;PMS5003;66809;52.974;-2.514;2023-02-26T00:59:40;9.65;8.033333333333333;
46381;PMS5003;66809;52.974;-2.514;2023-02-26T01:01:41;9.5;7.883333333333334;
46381;PMS5003;66809;52.974;-2.514;2023-02-26T01:03:41;9.45;7.85;
46381;PMS5003;66809;52.974;-2.514;2023-02-26T01:05:41;9.466666666666667;7.8;
46381;PMS5003;66809;52.974;-2.514;2023-02-26T01:07:42;9.3;7.783333333333333;
46381;PMS5003;66809;52.974;-2.514;2023-02-26T01:09:41;9.383333333333333;7.8;
46381;PMS5003;66809;52.974;-2.514;2023-02-26T01:11:57;9.483333333333333;7.8;
46381;PMS5003;66809;52.974;-2.514;2023-02-26T01:13:41;9.433333333333334;7.75;
46381;PMS5003;66809;52.974;-2.514;2023-02-26T01:15:42;9.4;7.7;
46381;PMS5003;66809;52.974;-2.514;2023-02-26T01:17:43;9.233333333333333;7.583333333333333;
46381;PMS5003;66809;52.974;-2.514;2023-02-26T01:19:43;9.216666666666667;7.566666666666666;
46381;PMS5003;66809;52.974;-2.514;2023-02-26T01:21:42;9.166666666666666;7.533333333333333;
46381;PMS5003;66809;52.974;-2.514;2023-02-26T01:23:42;9.066666666666666;7.483333333333333;
46381;PMS5003;66809;52.974;-2.514;2023-02-26T01:25:42;9.266666666666667;7.483333333333333;
46381;PMS5003;66809;52.974;-2.514;2023-02-26T01:27:40;9.2;7.416666666666667;
46381;PMS5003;66809;52.974;-2.514;2023-02-26T01:29:41;9.183333333333334;7.383333333333334;
46381;PMS5003;66809;52.974;-2.514;2023-02-26T01:31:42;9.1;7.333333333333333;
46381;PMS5003;66809;52.974;-2.514;2023-02-26T01:33:43;9.0;7.266666666666667;
46381;PMS5003;66809;52.974;-2.514;2023-02-26T01:35:41;9.0;7.233333333333333;
46381;PMS5003;66809;52.974;-2.514;2023-02-26T01:37:45;8.983333333333333;7.266666666666667;
46381;PMS5003;66809;52.974;-2.514;2023-02-26T01:39:42;9.0;7.216666666666667;
46381;PMS5003;66809;52.974;-2.514;2023-02-26T01:41:42;9.0;7.183333333333334;
46381;PMS5003;66809;52.974;-2.514;2023-02-26T01:43:43;9.066666666666666;7.216666666666667;
46381;PMS5003;66809;52.974;-2.514;2023-02-26T01:45:44;9.016666666666667;7.2;
46381;PMS5003;66809;52.974;-2.514;2023-02-26T01:47:44;8.966666666666667;7.25;
46381;PMS5003;66809;52.974;-2.514;2023-02-26T01:49:42;9.066666666666666;7.316666666666666;
46381;PMS5003;66809;52.974;-2.514;2023-02-26T01:51:43;9.2;7.4;
46381;PMS5003;66809;52.974;-2.514;2023-02-26T01:53:41;9.283333333333333;7.433333333333334;
46381;PMS5003;66809;52.974;-2.514;2023-02-26T01:55:41;9.316666666666666;7.483333333333333;
46381;PMS5003;66809;52.974;-2.514;2023-02-26T01:57:40;9.316666666666666;7.45;
46381;PMS5003;66809;52.974;-2.514;2023-02-26T01:59:41;9.416666666666666;7.5;
46381;PMS5003;66809;52.974;-2.514;2023-02-26T02:01:41;9.45;7.55;
46381;PMS5003;66809;52.974;-2.514;2023-02-26T02:03:40;9.466666666666667;7.566666666666666;
46381;PMS5003;66809;52.974;-2.514;2023-02-26T02:05:42;9.55;7.666666666666667;
46381;PMS5003;66809;52.974;-2.514;2023-02-26T02:07:41;9.583333333333334;7.683333333333334;
46381;PMS5003;66809;52.974;-2.514;2023-02-26T02:09:41;9.516666666666667;7.683333333333334;
46381;PMS5003;66809;52.974;-2.514;2023-02-26T02:11:46;9.366666666666667;7.6;
46381;PMS5003;66809;52.974;-2.514;2023-02-26T02:13:44;9.333333333333334;7.583333333333333;
46381;PMS5003;66809;52.974;-2.514;2023-02-26T02:15:43;9.35;7.533333333333333;
46381;PMS5003;66809;52.974;-2.514;2023-02-26T02:17:44;9.483333333333333;7.583333333333333;
46381;PMS5003;66809;52.974;-2.514;2023-02-26T02:19:47;9.433333333333334;7.566666666666666;
46381;PMS5003;66809;52.974;-2.514;2023-02-26T02:21:52;9.4;7.533333333333333;
46381;PMS5003;66809;52.974;-2.514;2023-02-26T02:23:42;9.333333333333334;7.5;
46381;PMS5003;66809;52.974;-2.514;2023-02-26T02:25:54;9.166666666666666;7.483333333333333;
46381;PMS5003;66809;52.974;-2.514;2023-02-26T02:27:43;9.15;7.45;
46381;PMS5003;66809;52.974;-2.514;2023-02-26T02:30:02;9.1;7.333333333333333;
46381;PMS5003;66809;52.974;-2.514;2023-02-26T02:31:47;9.133333333333333;7.25;
46381;PMS5003;66809;52.974;-2.514;2023-02-26T02:33:43;9.166666666666666;7.183333333333334;
46381;PMS5003;66809;52.974;-2.514;2023-02-26T02:35:41;9.083333333333334;7.166666666666667;
46381;PMS5003;66809;52.974;-2.514;2023-02-26T02:37:43;9.083333333333334;7.116666666666666;
46381;PMS5003;66809;52.974;-2.514;2023-02-26T02:39:48;9.1;7.166666666666667;
46381;PMS5003;66809;52.974;-2.514;2023-02-26T02:41:43;9.183333333333334;7.216666666666667;
46381;PMS5003;66809;52.974;-2.514;2023-02-26T02:43:41;9.033333333333333;7.116666666666666;
46381;PMS5003;66809;52.974;-2.514;2023-02-26T02:45:41;9.066666666666666;7.15;
46381;PMS5003;66809;52.974;-2.514;2023-02-26T02:47:41;9.133333333333333;7.2;
46381;PMS5003;66809;52.974;-2.514;2023-02-26T02:49:41;9.15;7.183333333333334;
46381;PMS5003;66809;52.974;-2.514;2023-02-26T02:51:41;8.933333333333334;7.016666666666667;
46381;PMS5003;66809;52.974;-2.514;2023-02-26T02:53:42;8.883333333333333;7.0;
46381;PMS5003;66809;52.974;-2.514;2023-02-26T02:55:42;8.833333333333334;6.983333333333333;
46381;PMS5003;66809;52.974;-2.514;2023-02-26T02:57:42;8.85;6.983333333333333;
46381;PMS5003;66809;52.974;-2.514;2023-02-26T02:59:41;8.866666666666667;7.0;
46381;PMS5003;66809;52.974;-2.514;2023-02-26T03:01:41;8.966666666666667;7.066666666666666;
46381;PMS5003;66809;52.974;-2.514;2023-02-26T03:03:42;8.933333333333334;7.016666666666667;
46381;PMS5003;66809;52.974;-2.514;2023-02-26T03:05:41;8.8;6.916666666666667;
46381;PMS5003;66809;52.974;-2.514;2023-02-26T03:07:42;8.75;6.85;
46381;PMS5003;66809;52.974;-2.514;2023-02-26T03:09:41;8.716666666666667;6.816666666666666;
46381;PMS5003;66809;52.974;-2.514;2023-02-26T03:11:41;8.716666666666667;6.85;
46381;PMS5003;66809;52.974;-2.514;2023-02-26T03:13:41;8.75;6.85;
46381;PMS5003;66809;52.974;-2.514;2023-02-26T03:15:42;8.783333333333333;6.9;
46381;PMS5003;66809;52.974;-2.514;2023-02-26T03:17:44;8.816666666666666;6.933333333333334;
46381;PMS5003;66809;52.974;-2.514;2023-02-26T03:19:44;8.933333333333334;7.066666666666666;
46381;PMS5003;66809;52.974;-2.514;2023-02-26T03:21:42;8.933333333333334;7.083333333333333;
46381;PMS5003;66809;52.974;-2.514;2023-02-26T03:23:42;9.016666666666667;7.083333333333333;
46381;PMS5003;66809;52.974;-2.514;2023-02-26T03:25:43;9.066666666666666;7.116666666666666;
46381;PMS5003;66809;52.974;-2.514;2023-02-26T03:27:42;9.1;7.15;
46381;PMS5003;66809;52.974;-2.514;2023-02-26T03:29:42;9.083333333333334;7.216666666666667;
46381;PMS5003;66809;52.974;-2.514;2023-02-26T03:31:43;8.916666666666666;7.216666666666667;
46381;PMS5003;66809;52.974;-2.514;2023-02-26T03:33:42;8.933333333333334;7.316666666666666;
46381;PMS5003;66809;52.974;-2.514;2023-02-26T03:35:43;9.0;7.35;
46381;PMS5003;66809;52.974;-2.514;2023-02-26T03:37:41;9.016666666666667;7.366666666666666;
46381;PMS5003;66809;52.974;-2.514;2023-02-26T03:39:42;9.066666666666666;7.416666666666667;
46381;PMS5003;66809;52.974;-2.514;2023-02-26T03:41:41;9.2;7.483333333333333;
46381;PMS5003;66809;52.974;-2.514;2023-02-26T03:43:42;9.316666666666666;7.6;
46381;PMS5003;66809;52.974;-2.514;2023-02-26T03:45:41;9.516666666666667;7.8;
46381;PMS5003;66809;52.974;-2.514;2023-02-26T03:47:42;9.583333333333334;7.9;
46381;PMS5003;66809;52.974;-2.514;2023-02-26T03:49:42;9.683333333333334;8.016666666666667;
46381;PMS5003;66809;52.974;-2.514;2023-02-26T03:51:41;9.95;8.183333333333334;
46381;PMS5003;66809;52.974;-2.514;2023-02-26T03:53:43;10.016666666666667;8.25;
46381;PMS5003;66809;52.974;-2.514;2023-02-26T03:55:42;10.15;8.366666666666667;
46381;PMS5003;66809;52.974;-2.514;2023-02-26T03:57:41;10.266666666666667;8.433333333333334;
46381;PMS5003;66809;52.974;-2.514;2023-02-26T03:59:40;10.3;8.483333333333333;
46381;PMS5003;66809;52.974;-2.514;2023-02-26T04:01:42;10.316666666666666;8.466666666666667;
46381;PMS5003;66809;52.974;-2.514;2023-02-26T04:03:42;10.316666666666666;8.516666666666667;
46381;PMS5003;66809;52.974;-2.514;2023-02-26T04:05:42;10.4;8.583333333333334;
46381;PMS5003;66809;52.974;-2.514;2023-02-26T04:07:41;10.5;8.65;
46381;PMS5003;66809;52.974;-2.514;2023-02-26T04:09:41;10.516666666666667;8.683333333333334;
46381;PMS5003;66809;52.974;-2.514;2023-02-26T04:11:41;10.566666666666666;8.766666666666667;
46381;PMS5003;66809;52.974;-2.514;2023-02-26T04:13:41;10.666666666666666;8.816666666666666;
46381;PMS5003;66809;52.974;-2.514;2023-02-26T04:15:41;10.733333333333333;8.9;
46381;PMS5003;66809;52.974;-2.514;2023-02-26T04:17:40;10.616666666666667;8.783333333333333;
46381;PMS5003;66809;52.974;-2.514;2023-02-26T04:19:41;10.566666666666666;8.666666666666666;
46381;PMS5003;66809;52.974;-2.514;2023-02-26T04:21:41;10.6;8.7;
46381;PMS5003;66809;52.974;-2.514;2023-02-26T04:23:41;10.6;8.783333333333333;
46381;PMS5003;66809;52.974;-2.514;2023-02-26T04:25:40;10.566666666666666;8.766666666666667;
46381;PMS5003;66809;52.974;-2.514;2023-02-26T04:27:41;10.516666666666667;8.716666666666667;
46381;PMS5003;66809;52.974;-2.514;2023-02-26T04:29:41;10.616666666666667;8.8;
46381;PMS5003;66809;52.974;-2.514;2023-02-26T04:31:41;10.783333333333333;8.95;
46381;PMS5003;66809;52.974;-2.514;2023-02-26T04:33:40;10.65;8.85;
46381;PMS5003;66809;52.974;-2.514;2023-02-26T04:35:40;10.666666666666666;8.9;
46381;PMS5003;66809;52.974;-2.514;2023-02-26T04:37:41;10.7;8.883333333333333;
46381;PMS5003;66809;52.974;-2.514;2023-02-26T04:39:40;10.633333333333333;8.816666666666666;
46381;PMS5003;66809;52.974;-2.514;2023-02-26T04:41:41;10.516666666666667;8.8;
46381;PMS5003;66809;52.974;-2.514;2023-02-26T04:43:41;10.566666666666666;8.816666666666666;
46381;PMS5003;66809;52.974;-2.514;2023-02-26T04:45:40;10.4;8.683333333333334;
46381;PMS5003;66809;52.974;-2.514;2023-02-26T04:47:40;10.416666666666666;8.7;
46381;PMS5003;66809;52.974;-2.514;2023-02-26T04:49:41;10.316666666666666;8.633333333333333;
46381;PMS5003;66809;52.974;-2.514;2023-02-26T04:51:41;10.3;8.683333333333334;
46381;PMS5003;66809;52.974;-2.514;2023-02-26T04:53:41;10.5;8.766666666666667;
46381;PMS5003;66809;52.974;-2.514;2023-02-26T04:55:41;10.6;8.783333333333333;
46381;PMS5003;66809;52.974;-2.514;2023-02-26T04:57:41;10.583333333333334;8.833333333333334;
46381;PMS5003;66809;52.974;-2.514;2023-02-26T04:59:40;10.766666666666667;8.916666666666666;
46381;PMS5003;66809;52.974;-2.514;2023-02-26T05:01:41;10.8;8.983333333333333;
46381;PMS5003;66809;52.974;-2.514;2023-02-26T05:03:41;10.883333333333333;9.066666666666666;
46381;PMS5003;66809;52.974;-2.514;2023-02-26T05:05:41;10.9;9.083333333333334;
46381;PMS5003;66809;52.974;-2.514;2023-02-26T05:07:41;10.95;9.2;
46381;PMS5003;66809;52.974;-2.514;2023-02-26T05:09:41;11.033333333333333;9.266666666666667;
46381;PMS5003;66809;52.974;-2.514;2023-02-26T05:11:41;11.066666666666666;9.283333333333333;
46381;PMS5003;66809;52.974;-2.514;2023-02-26T05:13:41;11.033333333333333;9.3;
46381;PMS5003;66809;52.974;-2.514;2023-02-26T05:15:40;11.116666666666667;9.366666666666667;
46381;PMS5003;66809;52.974;-2.514;2023-02-26T05:17:41;11.233333333333333;9.466666666666667;
46381;PMS5003;66809;52.974;-2.514;2023-02-26T05:19:41;11.25;9.516666666666667;
46381;PMS5003;66809;52.974;-2.514;2023-02-26T05:21:41;11.233333333333333;9.5;
46381;PMS5003;66809;52.974;-2.514;2023-02-26T05:23:40;11.316666666666666;9.5;
46381;PMS5003;66809;52.974;-2.514;2023-02-26T05:25:41;11.383333333333333;9.583333333333334;
46381;PMS5003;66809;52.974;-2.514;2023-02-26T05:27:41;11.416666666666666;9.683333333333334;
46381;PMS5003;66809;52.974;-2.514;2023-02-26T05:29:40;11.516666666666667;9.7;
46381;PMS5003;66809;52.974;-2.514;2023-02-26T05:31:41;11.483333333333333;9.633333333333333;
46381;PMS5003;66809;52.974;-2.514;2023-02-26T05:33:41;11.566666666666666;9.666666666666666;
46381;PMS5003;66809;52.974;-2.514;2023-02-26T05:35:41;11.65;9.65;
46381;PMS5003;66809;52.974;-2.514;2023-02-26T05:37:41;11.55;9.65;
46381;PMS5003;66809;52.974;-2.514;2023-02-26T05:39:41;11.533333333333333;9.683333333333334;
46381;PMS5003;66809;52.974;-2.514;2023-02-26T05:41:40;11.566666666666666;9.766666666666667;
46381;PMS5003;66809;52.974;-2.514;2023-02-26T05:43:40;11.6;9.816666666666666;
46381;PMS5003;66809;52.974;-2.514;2023-02-26T05:45:41;11.6;9.8;
46381;PMS5003;66809;52.974;-2.514;2023-02-26T05:47:41;11.633333333333333;9.75;
46381;PMS5003;66809;52.974;-2.514;2023-02-26T05:49:41;11.6;9.75;
46381;PMS5003;66809;52.974;-2.514;2023-02-26T05:51:41;11.55;9.716666666666667;
46381;PMS5003;66809;52.974;-2.514;2023-02-26T05:53:41;11.45;9.75;
46381;PMS5003;66809;52.974;-2.514;2023-02-26T05:55:40;11.3;9.716666666666667;
46381;PMS5003;66809;52.974;-2.514;2023-02-26T05:57:41;11.283333333333333;9.683333333333334;
46381;PMS5003;66809;52.974;-2.514;2023-02-26T05:59:41;11.2;9.633333333333333;
46381;PMS5003;66809;52.974;-2.514;2023-02-26T06:01:46;11.15;9.6;
46381;PMS5003;66809;52.974;-2.514;2023-02-26T06:03:41;11.183333333333334;9.516666666666667;
46381;PMS5003;66809;52.974;-2.514;2023-02-26T06:05:41;11.216666666666667;9.533333333333333;
46381;PMS5003;66809;52.974;-2.514;2023-02-26T06:07:42;11.116666666666667;9.416666666666666;
46381;PMS5003;66809;52.974;-2.514;2023-02-26T06:09:41;11.116666666666667;9.433333333333334;
46381;PMS5003;66809;52.974;-2.514;2023-02-26T06:11:41;11.066666666666666;9.4;
46381;PMS5003;66809;52.974;-2.514;2023-02-26T06:13:41;11.116666666666667;9.483333333333333;
46381;PMS5003;66809;52.974;-2.514;2023-02-26T06:15:40;11.033333333333333;9.383333333333333;
46381;PMS5003;66809;52.974;-2.514;2023-02-26T06:17:41;10.983333333333333;9.383333333333333;
46381;PMS5003;66809;52.974;-2.514;2023-02-26T06:19:41;11.033333333333333;9.383333333333333;
46381;PMS5003;66809;52.974;-2.514;2023-02-26T06:21:41;11.133333333333333;9.416666666666666;
46381;PMS5003;66809;52.974;-2.514;2023-02-26T06:23:40;10.983333333333333;9.366666666666667;
46381;PMS5003;66809;52.974;-2.514;2023-02-26T06:25:41;10.983333333333333;9.333333333333334;
46381;PMS5003;66809;52.974;-2.514;2023-02-26T06:27:40;10.9;9.266666666666667;
46381;PMS5003;66809;52.974;-2.514;2023-02-26T06:29:41;10.833333333333334;9.266666666666667;
46381;PMS5003;66809;52.974;-2.514;2023-02-26T06:31:41;10.866666666666667;9.283333333333333;
46381;PMS5003;66809;52.974;-2.514;2023-02-26T06:33:41;10.933333333333334;9.366666666666667;
46381;PMS5003;66809;52.974;-2.514;2023-02-26T06:35:40;10.816666666666666;9.383333333333333;
46381;PMS5003;66809;52.974;-2.514;2023-02-26T06:37:41;10.883333333333333;9.366666666666667;
46381;PMS5003;66809;52.974;-2.514;2023-02-26T06:39:41;10.866666666666667;9.35;
46381;PMS5003;66809;52.974;-2.514;2023-02-26T06:41:41;10.9;9.35;
46381;PMS5003;66809;52.974;-2.514;2023-02-26T06:43:41;10.783333333333333;9.2;
46381;PMS5003;66809;52.974;-2.514;2023-02-26T06:45:40;10.85;9.216666666666667;
46381;PMS5003;66809;52.974;-2.514;2023-02-26T06:47:41;10.833333333333334;9.216666666666667;
46381;PMS5003;66809;52.974;-2.514;2023-02-26T06:49:41;10.85;9.2;
46381;PMS5003;66809;52.974;-2.514;2023-02-26T06:51:41;10.733333333333333;9.116666666666667;
46381;PMS5003;66809;52.974;-2.514;2023-02-26T06:53:40;10.666666666666666;8.983333333333333;
46381;PMS5003;66809;52.974;-2.514;2023-02-26T06:55:42;10.666666666666666;8.916666666666666;
46381;PMS5003;66809;52.974;-2.514;2023-02-26T06:57:41;10.6;8.883333333333333;
46381;PMS5003;66809;52.974;-2.514;2023-02-26T06:59:41;10.55;8.866666666666667;
46381;PMS5003;66809;52.974;-2.514;2023-02-26T07:01:41;10.45;8.8;
46381;PMS5003;66809;52.974;-2.514;2023-02-26T07:03:40;10.35;8.75;
46381;PMS5003;66809;52.974;-2.514;2023-02-26T07:05:41;10.383333333333333;8.833333333333334;
46381;PMS5003;66809;52.974;-2.514;2023-02-26T07:07:41;10.35;8.833333333333334;
46381;PMS5003;66809;52.974;-2.514;2023-02-26T07:09:41;10.316666666666666;8.8;
46381;PMS5003;66809;52.974;-2.514;2023-02-26T07:11:40;10.316666666666666;8.766666666666667;
46381;PMS5003;66809;52.974;-2.514;2023-02-26T07:13:41;10.216666666666667;8.683333333333334;
46381;PMS5003;66809;52.974;-2.514;2023-02-26T07:15:41;10.266666666666667;8.716666666666667;
46381;PMS5003;66809;52.974;-2.514;2023-02-26T07:17:41;10.266666666666667;8.666666666666666;
46381;PMS5003;66809;52.974;-2.514;2023-02-26T07:19:41;10.383333333333333;8.8;
46381;PMS5003;66809;52.974;-2.514;2023-02-26T07:21:41;10.333333333333334;8.816666666666666;
46381;PMS5003;66809;52.974;-2.514;2023-02-26T07:23:40;10.416666666666666;8.883333333333333;
46381;PMS5003;66809;52.974;-2.514;2023-02-26T07:25:41;10.316666666666666;8.8;
46381;PMS5003;66809;52.974;-2.514;2023-02-26T07:27:41;10.4;8.833333333333334;
46381;PMS5003;66809;52.974;-2.514;2023-02-26T07:29:41;10.35;8.8;
46381;PMS5003;66809;52.974;-2.514;2023-02-26T07:31:40;10.25;8.766666666666667;
46381;PMS5003;66809;52.974;-2.514;2023-02-26T07:33:41;10.25;8.766666666666667;
46381;PMS5003;66809;52.974;-2.514;2023-02-26T07:35:41;10.25;8.7;
46381;PMS5003;66809;52.974;-2.514;2023-02-26T07:37:41;10.166666666666666;8.683333333333334;
46381;PMS5003;66809;52.974;-2.514;2023-02-26T07:39:41;10.316666666666666;8.75;
46381;PMS5003;66809;52.974;-2.514;2023-02-26T07:41:40;10.25;8.683333333333334;
46381;PMS5003;66809;52.974;-2.514;2023-02-26T07:43:41;10.316666666666666;8.733333333333333;
46381;PMS5003;66809;52.974;-2.514;2023-02-26T07:45:41;10.2;8.7;
46381;PMS5003;66809;52.974;-2.514;2023-02-26T07:47:41;10.083333333333334;8.666666666666666;
46381;PMS5003;66809;52.974;-2.514;2023-02-26T07:49:41;10.133333333333333;8.666666666666666;
46381;PMS5003;66809;52.974;-2.514;2023-02-26T07:51:40;10.133333333333333;8.666666666666666;
46381;PMS5003;66809;52.974;-2.514;2023-02-26T07:53:41;10.1;8.666666666666666;
46381;PMS5003;66809;52.974;-2.514;2023-02-26T07:55:41;10.05;8.65;
46381;PMS5003;66809;52.974;-2.514;2023-02-26T07:57:41;10.116666666666667;8.7;
46381;PMS5003;66809;52.974;-2.514;2023-02-26T07:59:40;10.05;8.666666666666666;
46381;PMS5003;66809;52.974;-2.514;2023-02-26T08:01:41;10.033333333333333;8.666666666666666;
46381;PMS5003;66809;52.974;-2.514;2023-02-26T08:03:41;9.95;8.616666666666667;
46381;PMS5003;66809;52.974;-2.514;2023-02-26T08:05:41;9.816666666666666;8.466666666666667;
46381;PMS5003;66809;52.974;-2.514;2023-02-26T08:07:41;9.833333333333334;8.466666666666667;
46381;PMS5003;66809;52.974;-2.514;2023-02-26T08:09:40;9.766666666666667;8.4;
46381;PMS5003;66809;52.974;-2.514;2023-02-26T08:11:41;9.716666666666667;8.333333333333334;
46381;PMS5003;66809;52.974;-2.514;2023-02-26T08:13:41;9.633333333333333;8.25;
46381;PMS5003;66809;52.974;-2.514;2023-02-26T08:15:41;9.466666666666667;8.166666666666666;
46381;PMS5003;66809;52.974;-2.514;2023-02-26T08:17:42;9.283333333333333;8.083333333333334;
46381;PMS5003;66809;52.974;-2.514;2023-02-26T08:19:41;8.933333333333334;7.816666666666666;
46381;PMS5003;66809;52.974;-2.514;2023-02-26T08:21:40;8.866666666666667;7.666666666666667;
46381;PMS5003;66809;52.974;-2.514;2023-02-26T08:23:41;8.75;7.566666666666666;
46381;PMS5003;66809;52.974;-2.514;2023-02-26T08:25:41;8.716666666666667;7.516666666666667;
46381;PMS5003;66809;52.974;-2.514;2023-02-26T08:27:41;8.7;7.5;
46381;PMS5003;66809;52.974;-2.514;2023-02-26T08:29:42;8.583333333333334;7.416666666666667;
46381;PMS5003;66809;52.974;-2.514;2023-02-26T08:31:41;8.6;7.383333333333334;
46381;PMS5003;66809;52.974;-2.514;2023-02-26T08:33:41;8.45;7.266666666666667;
46381;PMS5003;66809;52.974;-2.514;2023-02-26T08:35:41;8.433333333333334;7.283333333333333;
46381;PMS5003;66809;52.974;-2.514;2023-02-26T08:37:40;8.35;7.233333333333333;
46381;PMS5003;66809;52.974;-2.514;2023-02-26T08:39:40;8.183333333333334;7.116666666666666;
46381;PMS5003;66809;52.974;-2.514;2023-02-26T08:41:41;8.1;7.016666666666667;
46381;PMS5003;66809;52.974;-2.514;2023-02-26T08:43:41;7.966666666666667;6.933333333333334;
46381;PMS5003;66809;52.974;-2.514;2023-02-26T08:45:41;7.883333333333334;6.833333333333333;
46381;PMS5003;66809;52.974;-2.514;2023-02-26T08:47:41;7.85;6.783333333333333;
46381;PMS5003;66809;52.974;-2.514;2023-02-26T08:49:41;7.7;6.7;
46381;PMS5003;66809;52.974;-2.514;2023-02-26T08:51:41;7.716666666666667;6.616666666666666;
46381;PMS5003;66809;52.974;-2.514;2023-02-26T08:53:41;7.816666666666666;6.666666666666667;
46381;PMS5003;66809;52.974;-2.514;2023-02-26T08:55:41;7.833333333333333;6.666666666666667;
46381;PMS5003;66809;52.974;-2.514;2023-02-26T08:57:40;7.616666666666666;6.466666666666667;
46381;PMS5003;66809;52.974;-2.514;2023-02-26T08:59:41;7.483333333333333;6.316666666666666;
46381;PMS5003;66809;52.974;-2.514;2023-02-26T09:01:41;7.483333333333333;6.216666666666667;
46381;PMS5003;66809;52.974;-2.514;2023-02-26T09:03:41;7.433333333333334;6.216666666666667;
46381;PMS5003;66809;52.974;-2.514;2023-02-26T09:05:40;7.366666666666666;6.15;
46381;PMS5003;66809;52.974;-2.514;2023-02-26T09:07:40;7.266666666666667;6.033333333333333;
46381;PMS5003;66809;52.974;-2.514;2023-02-26T09:09:41;7.266666666666667;6.0;
46381;PMS5003;66809;52.974;-2.514;2023-02-26T09:11:41;7.25;6.0;
46381;PMS5003;66809;52.974;-2.514;2023-02-26T09:13:41;7.316666666666666;6.0;
46381;PMS5003;66809;52.974;-2.514;2023-02-26T09:15:41;7.2;5.9;
46381;PMS5003;66809;52.974;-2.514;2023-02-26T09:17:41;7.233333333333333;5.916666666666667;
46381;PMS5003;66809;52.974;-2.514;2023-02-26T09:19:41;7.25;5.85;
46381;PMS5003;66809;52.974;-2.514;2023-02-26T09:21:41;7.066666666666666;5.783333333333333;
46381;PMS5003;66809;52.974;-2.514;2023-02-26T09:23:41;6.966666666666667;5.683333333333334;
46381;PMS5003;66809;52.974;-2.514;2023-02-26T09:25:41;6.833333333333333;5.6;
46381;PMS5003;66809;52.974;-2.514;2023-02-26T09:27:41;6.7;5.483333333333333;
46381;PMS5003;66809;52.974;-2.514;2023-02-26T09:29:41;6.633333333333334;5.366666666666666;
46381;PMS5003;66809;52.974;-2.514;2023-02-26T09:31:40;6.6;5.333333333333333;
46381;PMS5003;66809;52.974;-2.514;2023-02-26T09:33:40;6.583333333333333;5.266666666666667;
46381;PMS5003;66809;52.974;-2.514;2023-02-26T09:35:41;6.45;5.133333333333334;